createdAt,value
2022-08-19T00:01:16.721Z,979.8
2022-08-19T00:03:18.553Z,979.8
2022-08-19T00:05:20.345Z,979.8
2022-08-19T00:07:21.788Z,979.7
2022-08-19T00:09:23.574Z,979.6
2022-08-19T00:11:25.446Z,979.6
2022-08-19T00:13:26.289Z,979.5
2022-08-19T00:15:27.322Z,979.6
2022-08-19T00:17:28.223Z,979.6
2022-08-19T00:19:29.952Z,979.5
2022-08-19T00:21:31.758Z,979.5
2022-08-19T00:23:33.492Z,979.4
2022-08-19T00:25:34.768Z,979.4
2022-08-19T00:27:36.016Z,979.4
2022-08-19T00:29:37.363Z,979.4
2022-08-19T00:31:39.227Z,979.4
2022-08-19T00:33:40.600Z,979.3
2022-08-19T00:35:41.617Z,979.4
2022-08-19T00:37:42.704Z,979.5
2022-08-19T00:41:47.763Z,979.4
2022-08-19T00:43:47.536Z,979.6
2022-08-19T00:45:49.059Z,979.6
2022-08-19T00:47:50.901Z,979.6
2022-08-19T00:49:52.044Z,979.6
2022-08-19T00:51:53.147Z,979.6
2022-08-19T00:53:54.678Z,979.6
2022-08-19T00:55:55.858Z,979.6
2022-08-19T00:57:56.830Z,979.6
2022-08-19T01:00:02.064Z,979.6
2022-08-19T01:01:59.375Z,979.7
2022-08-19T01:04:00.461Z,979.5
2022-08-19T01:06:01.463Z,979.3
2022-08-19T01:08:03.039Z,979.3
2022-08-19T01:10:04.457Z,979.3
2022-08-19T01:12:05.573Z,979.3
2022-08-19T01:14:06.513Z,979.4
2022-08-19T01:16:08.314Z,979.4
2022-08-19T01:18:10.154Z,979.4
2022-08-19T01:18:53.971Z,979.4
2022-08-19T01:20:54.873Z,979.5
2022-08-19T01:22:55.978Z,979.5
2022-08-19T01:24:57.096Z,979.6
2022-08-19T01:29:00.984Z,979.7
2022-08-19T01:31:01.698Z,979.7
2022-08-19T01:33:03.404Z,979.7
2022-08-19T01:35:04.881Z,979.8
2022-08-19T01:37:06.589Z,979.8
2022-08-19T01:39:08.129Z,979.7
2022-08-19T01:41:10.849Z,979.7
2022-08-19T01:43:11.220Z,979.6
2022-08-19T01:45:12.386Z,979.5
2022-08-19T01:47:14.250Z,979.5
2022-08-19T01:49:15.904Z,979.6
2022-08-19T01:51:17.716Z,979.7
2022-08-19T01:53:19.162Z,979.8
2022-08-19T01:55:20.398Z,979.8
2022-08-19T01:57:21.857Z,979.9
2022-08-19T02:01:24.324Z,979.8
2022-08-19T02:03:25.346Z,979.8
2022-08-19T02:05:26.365Z,979.8
2022-08-19T02:07:27.926Z,979.7
2022-08-19T02:09:29.788Z,979.6
2022-08-19T02:11:31.153Z,979.7
2022-08-19T02:13:32.407Z,979.8
2022-08-19T02:17:34.912Z,979.8
2022-08-19T02:19:36.498Z,979.8
2022-08-19T02:21:37.654Z,979.8
2022-08-19T02:23:39.171Z,979.8
2022-08-19T02:25:40.792Z,979.8
2022-08-19T02:27:42.401Z,979.8
2022-08-19T02:29:43.767Z,979.8
2022-08-19T02:31:45.117Z,979.7
2022-08-19T02:33:46.210Z,979.7
2022-08-19T02:35:47.289Z,979.7
2022-08-19T02:37:48.615Z,979.7
2022-08-19T02:39:50.016Z,979.6
2022-08-19T02:41:51.308Z,979.6
2022-08-19T02:44:26.768Z,979.6
2022-08-19T02:45:54.112Z,979.7
2022-08-19T02:47:55.285Z,979.8
2022-08-19T02:49:57.139Z,979.8
2022-08-19T02:51:58.337Z,979.8
2022-08-19T02:53:59.876Z,979.8
2022-08-19T02:56:01.403Z,979.8
2022-08-19T02:58:02.909Z,979.9
2022-08-19T03:00:04.487Z,979.9
2022-08-19T03:02:05.970Z,979.8
2022-08-19T03:04:07.762Z,979.9
2022-08-19T03:06:08.721Z,979.8
2022-08-19T03:08:09.680Z,979.9
2022-08-19T03:10:10.640Z,979.8
2022-08-19T03:12:12.047Z,979.9
2022-08-19T03:16:15.273Z,979.9
2022-08-19T03:18:17.968Z,979.8
2022-08-19T03:20:18.637Z,979.9
2022-08-19T03:22:20.190Z,979.9
2022-08-19T03:24:21.523Z,979.9
2022-08-19T03:26:22.388Z,979.9
2022-08-19T03:28:23.349Z,979.9
2022-08-19T03:30:33.866Z,979.8
2022-08-19T03:32:33.180Z,980
2022-08-19T03:46:36.049Z,979.9
2022-08-19T03:48:37.044Z,979.8
2022-08-19T03:52:38.774Z,979.9
2022-08-19T03:54:39.895Z,979.8
2022-08-19T03:56:41.086Z,979.8
2022-08-19T03:58:42.615Z,979.7
2022-08-19T04:00:43.578Z,979.7
2022-08-19T04:02:56.395Z,979.6
2022-08-19T04:04:46.484Z,979.6
2022-08-19T04:06:48.120Z,979.5
2022-08-19T04:08:49.491Z,979.7
2022-08-19T04:10:51.326Z,979.6
2022-08-19T04:12:52.816Z,979.8
2022-08-19T04:14:53.825Z,979.7
2022-08-19T04:16:55.298Z,979.8
2022-08-19T04:18:56.430Z,979.8
2022-08-19T04:20:58.006Z,979.8
2022-08-19T04:22:58.918Z,980
2022-08-19T04:25:00.037Z,979.9
2022-08-19T04:27:01.466Z,980
2022-08-19T04:29:02.569Z,980
2022-08-19T04:31:04.041Z,980.1
2022-08-19T04:33:05.517Z,980.1
2022-08-19T04:35:16.554Z,980.1
2022-08-19T04:37:08.490Z,980.1
2022-08-19T04:39:09.801Z,980.1
2022-08-19T04:41:11.012Z,980.1
2022-08-19T04:43:11.892Z,980.1
2022-08-19T04:45:13.528Z,980.1
2022-08-19T04:47:14.737Z,980
2022-08-19T04:49:16.027Z,980
2022-08-19T04:51:17.025Z,980
2022-08-19T04:53:18.800Z,979.9
2022-08-19T04:55:20.084Z,980
2022-08-19T04:57:20.956Z,979.9
2022-08-19T04:59:22.389Z,980
2022-08-19T05:01:23.397Z,979.9
2022-08-19T05:03:27.566Z,979.9
2022-08-19T05:05:25.264Z,980
2022-08-19T05:07:26.967Z,979.9
2022-08-19T05:09:33.131Z,979.9
2022-08-19T05:11:30.408Z,980
2022-08-19T05:13:32.132Z,980
2022-08-19T05:15:33.363Z,980.1
2022-08-19T05:17:38.197Z,980.1
2022-08-19T05:19:35.693Z,980.1
2022-08-19T05:21:36.877Z,980.1
2022-08-19T05:23:37.802Z,980.2
2022-08-19T05:29:41.519Z,980.2
2022-08-19T05:31:42.607Z,980.3
2022-08-19T05:33:43.657Z,980.3
2022-08-19T05:35:45.145Z,980.2
2022-08-19T05:37:46.734Z,980.3
2022-08-19T05:39:51.347Z,980.3
2022-08-19T05:41:49.173Z,980.4
2022-08-19T05:43:50.945Z,980.4
2022-08-19T05:45:52.280Z,980.6
2022-08-19T05:47:53.891Z,980.5
2022-08-19T05:49:55.395Z,980.6
2022-08-19T05:51:56.298Z,980.6
2022-08-19T05:53:58.026Z,980.5
2022-08-19T05:55:58.891Z,980.6
2022-08-19T05:57:59.922Z,980.6
2022-08-19T06:00:01.253Z,980.6
2022-08-19T06:02:02.772Z,980.6
2022-08-19T06:04:03.705Z,980.6
2022-08-19T06:06:05.277Z,980.7
2022-08-19T06:08:06.749Z,980.7
2022-08-19T06:10:08.074Z,980.6
2022-08-19T06:12:09.454Z,980.7
2022-08-19T06:14:16.607Z,980.7
2022-08-19T06:16:12.219Z,980.7
2022-08-19T06:18:13.828Z,980.8
2022-08-19T06:20:15.224Z,980.8
2022-08-19T06:22:16.362Z,980.8
2022-08-19T06:24:17.453Z,980.8
2022-08-19T06:28:20.177Z,980.8
2022-08-19T06:30:21.715Z,980.9
2022-08-19T06:32:23.402Z,981
2022-08-19T06:34:24.949Z,981
2022-08-19T06:36:26.222Z,981
2022-08-19T06:38:27.685Z,981
2022-08-19T06:40:28.785Z,981
2022-08-19T06:42:30.510Z,980.9
2022-08-19T06:44:31.984Z,980.9
2022-08-19T06:46:33.556Z,980.9
2022-08-19T06:48:37.786Z,980.9
2022-08-19T06:50:36.711Z,980.9
2022-08-19T06:52:38.220Z,980.8
2022-08-19T06:54:45.912Z,980.8
2022-08-19T06:56:39.051Z,980.8
2022-08-19T06:58:40.220Z,980.8
2022-08-19T07:00:41.469Z,980.9
2022-08-19T07:04:44.979Z,980.8
2022-08-19T07:06:48.448Z,980.9
2022-08-19T07:08:48.435Z,980.8
2022-08-19T07:10:49.405Z,980.8
2022-08-19T07:12:50.823Z,980.9
2022-08-19T07:14:51.812Z,980.8
2022-08-19T07:16:53.487Z,980.8
2022-08-19T07:18:54.283Z,980.9
2022-08-19T07:20:56.028Z,981
2022-08-19T07:22:57.130Z,980.8
2022-08-19T07:24:58.721Z,980.9
2022-08-19T07:26:59.691Z,980.9
2022-08-19T07:29:01.250Z,980.9
2022-08-19T07:31:02.820Z,981
2022-08-19T07:33:03.868Z,981
2022-08-19T07:35:04.731Z,981
2022-08-19T07:37:05.937Z,981
2022-08-19T07:39:07.332Z,981
2022-08-19T07:41:09.117Z,981.1
2022-08-19T07:45:11.983Z,981.1
2022-08-19T07:47:48.519Z,981.2
2022-08-19T07:49:14.850Z,981.2
2022-08-19T07:53:17.472Z,981.1
2022-08-19T07:55:40.915Z,981.1
2022-08-19T07:57:19.944Z,981
2022-08-19T07:59:21.361Z,981.1
2022-08-19T08:01:22.552Z,981
2022-08-19T08:03:23.928Z,981.2
2022-08-19T08:04:07.657Z,981.1
2022-08-19T08:08:09.492Z,981.2
2022-08-19T08:10:20.070Z,981.2
2022-08-19T08:12:30.917Z,981.3
2022-08-19T08:14:28.950Z,981.2
2022-08-19T08:16:14.651Z,981.3
2022-08-19T08:18:15.585Z,981.4
2022-08-19T08:20:17.108Z,981.4
2022-08-19T08:22:18.062Z,981.4
2022-08-19T08:24:19.454Z,981.3
2022-08-19T08:26:20.711Z,981.4
2022-08-19T08:28:21.726Z,981.4
2022-08-19T08:30:23.110Z,981.3
2022-08-19T08:32:24.140Z,981.3
2022-08-19T08:34:25.054Z,981.3
2022-08-19T08:36:26.056Z,981.4
2022-08-19T08:40:29.141Z,981.3
2022-08-19T08:42:30.546Z,981.4
2022-08-19T08:44:32.275Z,981.3
2022-08-19T08:46:33.722Z,981.3
2022-08-19T08:48:34.758Z,981.3
2022-08-19T08:50:35.795Z,981.2
2022-08-19T08:52:37.213Z,981.3
2022-08-19T08:54:38.427Z,981.3
2022-08-19T08:56:39.550Z,981.4
2022-08-19T08:58:40.481Z,981.3
2022-08-19T09:02:43.570Z,981.2
2022-08-19T09:04:44.972Z,981.2
2022-08-19T09:06:46.264Z,981.3
2022-08-19T09:08:47.489Z,981.3
2022-08-19T09:10:48.694Z,981.2
2022-08-19T09:12:50.103Z,981.3
2022-08-19T09:14:52.255Z,981.3
2022-08-19T09:16:53.049Z,981.2
2022-08-19T09:18:54.104Z,981.2
2022-08-19T09:20:55.479Z,981.1
2022-08-19T09:22:56.693Z,981.2
2022-08-19T09:24:57.818Z,981.2
2022-08-19T09:26:59.104Z,981.2
2022-08-19T09:29:00.482Z,981.1
2022-08-19T09:31:01.963Z,981.1
2022-08-19T09:33:03.197Z,981.1
2022-08-19T09:35:04.081Z,981.2
2022-08-19T09:37:05.856Z,981.1
2022-08-19T09:39:14.967Z,981.1
2022-08-19T09:41:08.583Z,981.2
2022-08-19T09:45:10.601Z,981.2
2022-08-19T09:47:11.466Z,981.3
2022-08-19T09:49:12.591Z,981.1
2022-08-19T09:51:13.821Z,981.2
2022-08-19T09:53:15.176Z,981.2
2022-08-19T09:55:16.058Z,981.2
2022-08-19T09:57:17.827Z,981.1
2022-08-19T09:59:19.027Z,981
2022-08-19T10:01:20.519Z,981.2
2022-08-19T10:03:21.295Z,981.1
2022-08-19T10:05:23.033Z,981.2
2022-08-19T10:07:23.611Z,981.1
2022-08-19T10:11:27.585Z,981.2
2022-08-19T10:13:28.008Z,981.2
2022-08-19T10:15:29.730Z,981.4
2022-08-19T10:17:31.598Z,981.4
2022-08-19T10:19:32.120Z,981.5
2022-08-19T10:21:33.741Z,981.4
2022-08-19T10:23:35.557Z,981.3
2022-08-19T10:25:36.958Z,981.2
2022-08-19T10:27:37.937Z,981.3
2022-08-19T10:29:39.567Z,981.2
2022-08-19T10:32:01.556Z,981.2
2022-08-19T10:33:53.001Z,981.2
2022-08-19T10:35:56.339Z,981.2
2022-08-19T10:37:51.891Z,981.2
2022-08-19T10:39:46.156Z,981.1
2022-08-19T10:41:47.352Z,981.1
2022-08-19T10:43:48.152Z,981.2
2022-08-19T10:45:52.491Z,981.1
2022-08-19T10:47:50.200Z,981.2
2022-08-19T10:49:51.071Z,981.2
2022-08-19T10:51:52.151Z,981.2
2022-08-19T10:53:53.527Z,981.1
2022-08-19T10:55:54.983Z,981.1
2022-08-19T10:58:02.443Z,981.1
2022-08-19T10:59:57.881Z,981.1
2022-08-19T11:01:58.767Z,981.1
2022-08-19T11:03:59.914Z,981
2022-08-19T11:06:01.276Z,981.1
2022-08-19T11:08:02.900Z,981
2022-08-19T11:10:03.663Z,981
2022-08-19T11:12:04.778Z,981.1
2022-08-19T11:14:06.282Z,981
2022-08-19T11:16:07.952Z,981.1
2022-08-19T11:18:09.018Z,981
2022-08-19T11:20:10.444Z,981.1
2022-08-19T11:22:11.730Z,981.1
2022-08-19T11:26:14.271Z,981.1
2022-08-19T11:28:15.958Z,981.1
2022-08-19T11:30:17.067Z,981.1
2022-08-19T11:32:17.893Z,981
2022-08-19T11:34:18.830Z,981.1
2022-08-19T11:36:20.174Z,981.1
2022-08-19T11:38:21.897Z,981.1
2022-08-19T11:40:23.007Z,981.1
2022-08-19T11:42:23.724Z,981
2022-08-19T11:44:25.410Z,981.1
2022-08-19T11:46:26.935Z,981
2022-08-19T11:48:28.004Z,981
2022-08-19T11:50:29.389Z,981.1
2022-08-19T11:52:30.814Z,981
2022-08-19T11:54:32.156Z,981.1
2022-08-19T11:56:33.878Z,981.1
2022-08-19T11:58:35.293Z,981.1
2022-08-19T12:00:36.375Z,981.2
2022-08-19T12:02:37.250Z,981
2022-08-19T12:04:38.233Z,981.1
2022-08-19T12:06:39.998Z,981.1
2022-08-19T12:08:41.494Z,981.1
2022-08-19T12:10:42.391Z,981.1
2022-08-19T12:12:54.725Z,981.1
2022-08-19T12:14:44.442Z,981.1
2022-08-19T12:16:48.540Z,981.1
2022-08-19T12:18:46.663Z,981.1
2022-08-19T12:20:47.502Z,981
2022-08-19T12:22:49.111Z,981.1
2022-08-19T12:24:50.515Z,981.1
2022-08-19T12:26:52.688Z,981.1
2022-08-19T12:28:53.390Z,981.1
2022-08-19T12:32:56.388Z,981.1
2022-08-19T12:34:57.412Z,981.1
2022-08-19T12:36:58.675Z,981.2
2022-08-19T12:38:59.721Z,981.3
2022-08-19T12:41:01.308Z,981.2
2022-08-19T12:43:02.608Z,981.2
2022-08-19T12:45:05.900Z,981.2
2022-08-19T12:47:05.283Z,981.1
2022-08-19T12:49:06.333Z,981.1
2022-08-19T12:51:07.519Z,981.1
2022-08-19T12:53:09.000Z,981.1
2022-08-19T12:55:09.835Z,981
2022-08-19T12:57:11.256Z,981.1
2022-08-19T12:59:12.354Z,981.1
2022-08-19T13:01:13.550Z,981.1
2022-08-19T13:03:15.247Z,981.2
2022-08-19T13:07:18.014Z,981.1
2022-08-19T13:09:19.681Z,981
2022-08-19T13:11:20.729Z,981
2022-08-19T13:13:22.390Z,981.1
2022-08-19T13:15:24.337Z,981
2022-08-19T13:17:24.671Z,981
2022-08-19T13:19:25.584Z,980.9
2022-08-19T13:21:26.877Z,981
2022-08-19T13:23:28.462Z,981.1
2022-08-19T13:25:29.334Z,981.1
2022-08-19T13:27:31.111Z,981
2022-08-19T13:29:32.006Z,981.1
2022-08-19T13:31:33.840Z,981
2022-08-19T13:33:34.887Z,981.1
2022-08-19T13:35:35.765Z,981.1
2022-08-19T13:37:37.041Z,981.1
2022-08-19T13:39:38.749Z,981.2
2022-08-19T13:41:39.883Z,981.2
2022-08-19T13:43:41.609Z,981
2022-08-19T13:45:43.127Z,981.2
2022-08-19T13:47:44.222Z,981.1
2022-08-19T13:49:45.527Z,981
2022-08-19T13:51:46.474Z,981
2022-08-19T13:53:48.106Z,981.1
2022-08-19T13:55:48.503Z,981
2022-08-19T13:57:50.099Z,981
2022-08-19T13:59:50.910Z,981.1
2022-08-19T14:01:51.894Z,981
2022-08-19T14:03:53.570Z,981.1
2022-08-19T14:05:54.351Z,981.1
2022-08-19T14:07:55.322Z,981
2022-08-19T14:09:56.086Z,981
2022-08-19T14:11:56.865Z,981
2022-08-19T14:13:58.364Z,981
2022-08-19T14:15:59.821Z,981
2022-08-19T14:18:01.078Z,981.1
2022-08-19T14:20:03.498Z,981.1
2022-08-19T14:22:03.645Z,981
2022-08-19T14:24:04.459Z,980.9
2022-08-19T14:26:06.113Z,980.9
2022-08-19T14:28:07.572Z,981
2022-08-19T14:30:08.401Z,980.9
2022-08-19T14:32:11.095Z,980.9
2022-08-19T14:34:10.890Z,980.8
2022-08-19T14:36:11.845Z,981
2022-08-19T14:38:12.814Z,981
2022-08-19T14:40:14.026Z,980.9
2022-08-19T14:42:14.879Z,980.9
2022-08-19T14:44:16.516Z,980.9
2022-08-19T14:46:18.083Z,980.9
2022-08-19T14:48:20.361Z,980.9
2022-08-19T14:49:06.593Z,980.9
2022-08-19T14:53:08.210Z,981
2022-08-19T14:55:07.897Z,980.9
2022-08-19T14:57:09.121Z,980.9
2022-08-19T14:59:10.427Z,980.9
2022-08-19T15:01:11.494Z,980.9
2022-08-19T15:03:13.176Z,980.8
2022-08-19T15:05:14.867Z,981
2022-08-19T15:09:17.028Z,981
2022-08-19T15:11:18.353Z,981
2022-08-19T15:13:20.071Z,980.9
2022-08-19T15:15:21.371Z,980.9
2022-08-19T15:19:23.765Z,980.9
2022-08-19T15:21:26.635Z,980.9
2022-08-19T15:23:26.471Z,980.9
2022-08-19T15:25:27.637Z,980.9
2022-08-19T15:27:28.919Z,980.9
2022-08-19T15:29:30.558Z,980.8
2022-08-19T15:31:32.227Z,980.9
2022-08-19T15:33:33.994Z,981
2022-08-19T15:35:35.689Z,981
2022-08-19T15:37:37.809Z,981
2022-08-19T15:39:38.984Z,981
2022-08-19T15:41:40.309Z,980.9
2022-08-19T15:43:41.565Z,980.9
2022-08-19T15:45:45.250Z,980.9
2022-08-19T15:47:43.245Z,980.9
2022-08-19T15:49:44.519Z,981
2022-08-19T15:51:45.669Z,981
2022-08-19T15:53:47.067Z,981.1
2022-08-19T15:55:48.476Z,981
2022-08-19T15:57:49.901Z,981.1
2022-08-19T15:59:51.592Z,981.2
2022-08-19T16:01:53.409Z,981.2
2022-08-19T16:03:54.502Z,981.2
2022-08-19T16:05:55.589Z,981.2
2022-08-19T16:07:57.108Z,981.3
2022-08-19T16:09:57.912Z,981.2
2022-08-19T16:12:01.621Z,981.2
2022-08-19T16:13:59.883Z,981.2
2022-08-19T16:16:01.678Z,981.4
2022-08-19T16:18:03.349Z,981.3
2022-08-19T16:20:05.030Z,981.3
2022-08-19T16:24:07.716Z,981.2
2022-08-19T16:26:08.989Z,981.3
2022-08-19T16:28:10.373Z,981.2
2022-08-19T16:30:11.585Z,981.4
2022-08-19T16:32:12.854Z,981.3
2022-08-19T16:34:14.266Z,981.3
2022-08-19T16:36:15.982Z,981.3
2022-08-19T16:38:17.193Z,981.4
2022-08-19T16:40:18.545Z,981.4
2022-08-19T16:42:19.807Z,981.4
2022-08-19T16:44:21.346Z,981.4
2022-08-19T16:46:22.675Z,981.4
2022-08-19T16:48:24.020Z,981.4
2022-08-19T16:50:39.234Z,981.4
2022-08-19T16:52:27.121Z,981.5
2022-08-19T16:54:32.094Z,981.6
2022-08-19T16:56:29.578Z,981.5
2022-08-19T16:58:31.184Z,981.5
2022-08-19T17:00:32.433Z,981.4
2022-08-19T17:02:33.784Z,981.6
2022-08-19T17:04:35.377Z,981.6
2022-08-19T17:06:37.056Z,981.5
2022-08-19T17:08:38.629Z,981.6
2022-08-19T17:11:02.087Z,981.5
2022-08-19T17:12:40.909Z,981.5
2022-08-19T17:14:45.515Z,981.4
2022-08-19T17:16:43.701Z,981.5
2022-08-19T17:18:44.746Z,981.5
2022-08-19T17:22:47.499Z,981.5
2022-08-19T17:24:48.679Z,981.5
2022-08-19T17:26:50.380Z,981.5
2022-08-19T17:28:52.073Z,981.6
2022-08-19T17:32:54.866Z,981.6
2022-08-19T17:34:56.359Z,981.6
2022-08-19T17:36:57.518Z,981.6
2022-08-19T17:38:59.341Z,981.6
2022-08-19T17:43:01.345Z,981.5
2022-08-19T17:45:02.638Z,981.5
2022-08-19T17:49:04.720Z,981.6
2022-08-19T17:51:06.257Z,981.5
2022-08-19T17:53:07.139Z,981.6
2022-08-19T17:55:08.691Z,981.7
2022-08-19T17:57:10.234Z,981.6
2022-08-19T17:59:13.986Z,981.7
2022-08-19T18:01:13.409Z,981.7
2022-08-19T18:03:14.803Z,981.7
2022-08-19T18:05:15.674Z,981.7
2022-08-19T18:07:16.639Z,981.8
2022-08-19T18:09:18.439Z,981.7
2022-08-19T18:11:19.628Z,981.7
2022-08-19T18:13:20.866Z,981.7
2022-08-19T18:15:22.361Z,981.7
2022-08-19T18:17:23.487Z,981.8
2022-08-19T18:19:24.749Z,981.8
2022-08-19T18:21:26.301Z,981.9
2022-08-19T18:23:41.767Z,981.8
2022-08-19T18:25:28.257Z,981.8
2022-08-19T18:27:29.659Z,981.9
2022-08-19T18:29:31.133Z,981.8
2022-08-19T18:31:32.615Z,981.8
2022-08-19T18:33:34.222Z,981.8
2022-08-19T18:35:35.354Z,981.8
2022-08-19T18:37:36.520Z,981.8
2022-08-19T18:39:37.565Z,981.9
2022-08-19T18:41:38.544Z,982
2022-08-19T18:43:40.161Z,982
2022-08-19T18:47:42.792Z,981.9
2022-08-19T18:49:43.987Z,982
2022-08-19T18:51:45.640Z,982
2022-08-19T18:53:46.855Z,982
2022-08-19T18:55:48.218Z,982.1
2022-08-19T18:57:49.305Z,982.1
2022-08-19T18:59:50.806Z,982.1
2022-08-19T19:03:53.823Z,982.2
2022-08-19T19:05:55.464Z,982.2
2022-08-19T19:07:56.580Z,982.2
2022-08-19T19:09:58.176Z,982.2
2022-08-19T19:14:00.523Z,982.2
2022-08-19T19:16:01.586Z,982.3
2022-08-19T19:18:03.111Z,982.3
2022-08-19T19:20:12.437Z,982.4
2022-08-19T19:24:06.372Z,982.3
2022-08-19T19:26:07.814Z,982.4
2022-08-19T19:28:09.426Z,982.4
2022-08-19T19:30:10.468Z,982.5
2022-08-19T19:32:12.722Z,982.5
2022-08-19T19:34:15.461Z,982.4
2022-08-19T19:36:15.063Z,982.4
2022-08-19T19:38:16.508Z,982.5
2022-08-19T19:40:18.065Z,982.4
2022-08-19T19:44:30.432Z,982.4
2022-08-19T19:46:22.243Z,982.5
2022-08-19T19:48:23.432Z,982.5
2022-08-19T19:50:24.407Z,982.6
2022-08-19T19:52:26.193Z,982.5
2022-08-19T19:54:27.862Z,982.5
2022-08-19T19:56:29.338Z,982.5
2022-08-19T19:58:30.284Z,982.5
2022-08-19T20:00:32.059Z,982.6
2022-08-19T20:02:33.227Z,982.6
2022-08-19T20:04:34.589Z,982.6
2022-08-19T20:06:36.127Z,982.6
2022-08-19T20:08:37.016Z,982.7
2022-08-19T20:12:40.186Z,982.6
2022-08-19T20:14:41.393Z,982.6
2022-08-19T20:16:42.331Z,982.7
2022-08-19T20:18:44.027Z,982.6
2022-08-19T20:20:45.568Z,982.7
2022-08-19T20:22:46.595Z,982.7
2022-08-19T20:24:47.919Z,982.6
2022-08-19T20:26:51.166Z,982.7
2022-08-19T20:28:58.229Z,982.6
2022-08-19T20:30:52.078Z,982.8
2022-08-19T20:32:53.078Z,982.8
2022-08-19T20:34:54.441Z,982.9
2022-08-19T20:36:55.920Z,982.8
2022-08-19T20:38:57.028Z,982.7
2022-08-19T20:40:58.257Z,982.8
2022-08-19T20:42:59.428Z,982.8
2022-08-19T20:45:00.808Z,982.8
2022-08-19T20:47:03.925Z,982.8
2022-08-19T20:49:02.833Z,982.8
2022-08-19T20:51:04.125Z,982.8
2022-08-19T20:53:05.710Z,982.8
2022-08-19T20:55:07.323Z,982.8
2022-08-19T20:57:08.979Z,982.9
2022-08-19T20:59:10.662Z,982.9
2022-08-19T21:01:12.394Z,982.9
2022-08-19T21:03:13.774Z,982.9
2022-08-19T21:05:15.054Z,982.8
2022-08-19T21:07:16.188Z,982.8
2022-08-19T21:09:17.155Z,982.8
2022-08-19T21:11:20.549Z,982.8
2022-08-19T21:13:19.654Z,982.7
2022-08-19T21:15:21.117Z,982.7
2022-08-19T21:17:22.677Z,982.8
2022-08-19T21:19:24.196Z,982.8
2022-08-19T21:21:24.826Z,982.9
2022-08-19T21:23:26.176Z,982.8
2022-08-19T21:25:27.698Z,982.8
2022-08-19T21:27:28.921Z,982.8
2022-08-19T21:29:30.718Z,982.8
2022-08-19T21:31:32.271Z,982.7
2022-08-19T21:33:33.521Z,982.7
2022-08-19T21:35:34.885Z,982.6
2022-08-19T21:38:20.502Z,982.7
2022-08-19T21:40:21.862Z,982.7
2022-08-19T21:42:23.450Z,982.7
2022-08-19T21:44:24.496Z,982.7
2022-08-19T21:48:27.052Z,982.8
2022-08-19T21:50:28.855Z,982.8
2022-08-19T21:52:30.093Z,982.8
2022-08-19T21:54:37.571Z,982.8
2022-08-19T21:56:33.437Z,982.7
2022-08-19T21:58:35.002Z,982.8
2022-08-19T22:00:36.512Z,982.8
2022-08-19T22:02:37.630Z,982.8
2022-08-19T22:04:38.763Z,982.8
2022-08-19T22:06:39.963Z,982.8
2022-08-19T22:08:41.729Z,982.9
2022-08-19T22:10:43.095Z,982.8
2022-08-19T22:12:45.962Z,982.9
2022-08-19T22:14:45.684Z,982.9
2022-08-19T22:16:46.823Z,982.8
2022-08-19T22:18:48.620Z,982.8
2022-08-19T22:20:50.305Z,982.9
2022-08-19T22:22:51.556Z,982.9
2022-08-19T22:24:53.031Z,982.9
2022-08-19T22:26:54.477Z,982.9
2022-08-19T22:28:55.718Z,982.9
2022-08-19T22:30:57.572Z,982.9
2022-08-19T22:32:58.540Z,982.9
2022-08-19T22:35:00.236Z,982.9
2022-08-19T22:37:02.057Z,983
2022-08-19T22:39:03.617Z,982.9
2022-08-19T22:41:05.703Z,982.9
2022-08-19T22:43:06.230Z,982.9
2022-08-19T22:47:08.607Z,982.9
2022-08-19T22:49:09.667Z,982.9
2022-08-19T22:51:11.330Z,982.9
2022-08-19T22:53:12.675Z,982.9
2022-08-19T22:55:14.063Z,982.9
2022-08-19T22:57:15.823Z,982.8
2022-08-19T22:59:17.415Z,982.9
2022-08-19T23:01:27.522Z,982.8
2022-08-19T23:03:20.185Z,982.9
2022-08-19T23:05:21.772Z,982.8
2022-08-19T23:07:23.505Z,982.8
2022-08-19T23:09:24.449Z,982.8
2022-08-19T23:11:26.181Z,982.8
2022-08-19T23:13:27.099Z,982.8
2022-08-19T23:15:28.711Z,982.8
2022-08-19T23:17:29.641Z,982.8
2022-08-19T23:19:30.781Z,982.8
2022-08-19T23:21:32.035Z,982.8
2022-08-19T23:23:33.058Z,982.9
2022-08-19T23:25:33.968Z,982.7
2022-08-19T23:27:35.118Z,982.8
2022-08-19T23:29:36.593Z,982.6
2022-08-19T23:31:37.866Z,982.7
2022-08-19T23:33:46.881Z,982.7
2022-08-19T23:35:40.909Z,982.6
2022-08-19T23:37:41.863Z,982.6
2022-08-19T23:39:43.701Z,982.7
2022-08-19T23:41:44.601Z,982.6
2022-08-19T23:43:46.194Z,982.7
2022-08-19T23:45:51.158Z,982.7
2022-08-19T23:47:48.454Z,982.7
2022-08-19T23:49:49.238Z,982.7
2022-08-19T23:51:50.127Z,982.7
2022-08-19T23:55:52.609Z,982.7
2022-08-19T23:57:54.290Z,982.8
2022-08-19T23:59:55.097Z,982.7
